Time;durP1;ratioP1;P1;durP2;ratioP2;P2;SDS_P1;SDS_P2;PMS_P1;PMS_P2;Temp;Humidity;BMP_temperature;BMP_pressure;BME280_temperature;BME280_humidity;BME280_pressure;Samples;Min_cycle;Max_cycle;Signal;HPM_P1;HPM_P2
2021/06/21 00:00:53;;;;;;;12.73;11.73;;;19.40;99.90;;;;;;5011165;28;20130;-82
2021/06/21 00:03:20;;;;;;;12.65;11.52;;;19.30;99.90;;;;;;4995904;28;20587;-84
2021/06/21 00:05:47;;;;;;;13.68;12.32;;;19.20;99.90;;;;;;4977634;28;20056;-84
2021/06/21 00:08:15;;;;;;;11.23;10.23;;;19.10;99.90;;;;;;4994473;28;20044;-81
2021/06/21 00:10:42;;;;;;;12.18;11.18;;;18.90;99.90;;;;;;4993368;28;20049;-84
2021/06/21 00:13:10;;;;;;;12.82;11.80;;;18.90;99.90;;;;;;4997781;28;20046;-82
2021/06/21 00:15:37;;;;;;;12.15;10.95;;;18.80;99.90;;;;;;5000821;28;20081;-81
2021/06/21 00:18:04;;;;;;;13.82;12.52;;;18.80;99.90;;;;;;4998693;28;20137;-81
2021/06/21 00:20:31;;;;;;;13.43;12.32;;;18.70;99.90;;;;;;4998490;28;20058;-81
2021/06/21 00:22:58;;;;;;;12.25;11.27;;;18.70;99.90;;;;;;4998118;28;20062;-83
2021/06/21 00:25:25;;;;;;;13.13;11.77;;;18.80;99.90;;;;;;4981258;28;20046;-84
2021/06/21 00:27:52;;;;;;;12.18;11.27;;;18.80;99.90;;;;;;4999022;28;20132;-86
2021/06/21 00:30:21;;;;;;;13.32;12.00;;;18.80;99.90;;;;;;4981032;28;20555;-84
2021/06/21 00:32:48;;;;;;;12.93;11.88;;;18.60;99.90;;;;;;4999335;28;20070;-83
2021/06/21 00:35:17;;;;;;;13.25;12.10;;;18.60;99.90;;;;;;4983259;28;20157;-84
2021/06/21 00:37:45;;;;;;;13.85;12.60;;;18.50;99.90;;;;;;5000415;28;20576;-84
2021/06/21 00:40:13;;;;;;;14.27;13.07;;;18.60;99.90;;;;;;5000397;28;20045;-83
2021/06/21 00:42:42;;;;;;;14.40;12.98;;;18.50;99.90;;;;;;5000489;28;20042;-84
2021/06/21 00:45:11;;;;;;;14.65;13.15;;;18.50;99.90;;;;;;5003870;28;20156;-84
2021/06/21 00:47:38;;;;;;;15.63;14.15;;;18.40;99.90;;;;;;5022290;28;20096;-83
2021/06/21 00:50:06;;;;;;;15.60;14.20;;;18.40;99.90;;;;;;4997758;28;20073;-81
2021/06/21 00:52:42;;;;;;;15.60;14.13;;;18.30;99.90;;;;;;5016910;28;20045;-81
2021/06/21 00:55:19;;;;;;;19.65;15.63;;;18.20;99.90;;;;;;4980230;28;20038;-82
2021/06/21 00:57:52;;;;;;;20.15;17.45;;;18.10;99.90;;;;;;5013662;28;20620;-83
2021/06/21 01:00:24;;;;;;;18.95;16.95;;;18.10;99.90;;;;;;4995588;28;20140;-82
2021/06/21 01:02:52;;;;;;;18.63;16.95;;;18.00;99.90;;;;;;4980750;28;20460;-82
2021/06/21 01:05:25;;;;;;;18.58;16.67;;;18.00;99.90;;;;;;4987684;28;20061;-82
2021/06/21 01:07:55;;;;;;;19.48;17.35;;;18.00;99.90;;;;;;4982482;28;20052;-81
2021/06/21 01:10:32;;;;;;;19.90;18.00;;;17.90;99.90;;;;;;5018173;28;20089;-81
2021/06/21 01:13:08;;;;;;;19.67;17.77;;;17.80;99.90;;;;;;5029571;28;20049;-82
2021/06/21 01:15:46;;;;;;;21.75;19.50;;;17.70;99.90;;;;;;5008985;28;20034;-84
2021/06/21 01:18:27;;;;;;;22.10;19.77;;;17.70;99.90;;;;;;5018613;28;20066;-83
2021/06/21 01:21:33;;;;;;;23.75;21.33;;;17.60;99.90;;;;;;5022753;28;20050;-83
2021/06/21 01:24:53;;;;;;;25.70;21.83;;;17.60;99.90;;;;;;5005924;28;20505;-86
2021/06/21 01:27:38;;;;;;;26.33;22.15;;;17.60;99.90;;;;;;4955158;28;20055;-81
2021/06/21 01:30:08;;;;;;;27.38;24.52;;;17.50;99.90;;;;;;4924601;28;20054;-83
2021/06/21 01:32:44;;;;;;;26.52;23.75;;;17.60;99.90;;;;;;4946847;28;20073;-85
2021/06/21 01:35:28;;;;;;;35.05;26.52;;;17.50;99.90;;;;;;4995711;28;20053;-83
2021/06/21 01:37:58;;;;;;;27.85;24.75;;;17.60;99.90;;;;;;4995004;28;20319;-83
2021/06/21 01:40:30;;;;;;;31.23;27.30;;;17.60;99.90;;;;;;4978632;28;20393;-84
2021/06/21 01:43:01;;;;;;;35.20;31.15;;;17.50;99.90;;;;;;4996260;28;20084;-83
2021/06/21 01:45:29;;;;;;;36.35;31.00;;;17.70;99.90;;;;;;4998205;28;20455;-84
2021/06/21 01:47:59;;;;;;;31.90;27.13;;;17.60;99.90;;;;;;5003769;28;20058;-84
2021/06/21 01:50:29;;;;;;;36.72;31.02;;;17.50;99.90;;;;;;4996295;28;20100;-85
2021/06/21 01:53:00;;;;;;;35.35;31.50;;;17.40;99.90;;;;;;4980587;28;20073;-82
2021/06/21 01:55:29;;;;;;;39.33;32.78;;;17.50;99.90;;;;;;4984067;28;20149;-85
2021/06/21 01:57:57;;;;;;;36.88;32.88;;;17.40;99.90;;;;;;4993955;28;20054;-85
2021/06/21 02:00:25;;;;;;;37.42;31.58;;;17.40;99.90;;;;;;4979461;28;20070;-83
2021/06/21 02:02:54;;;;;;;41.97;34.72;;;17.40;99.90;;;;;;5001305;28;20415;-83
2021/06/21 02:05:22;;;;;;;38.50;32.47;;;17.40;99.90;;;;;;4992152;28;20074;-83
2021/06/21 02:07:51;;;;;;;38.25;34.10;;;17.50;99.90;;;;;;4977211;28;20039;-83
2021/06/21 02:10:20;;;;;;;38.85;32.53;;;17.40;99.90;;;;;;4990664;28;20050;-83
2021/06/21 02:12:48;;;;;;;39.53;32.40;;;17.50;99.90;;;;;;4992602;28;20046;-82
2021/06/21 02:15:16;;;;;;;35.97;30.23;;;17.50;99.90;;;;;;4993056;28;20771;-82
2021/06/21 02:17:44;;;;;;;33.60;30.00;;;17.40;99.90;;;;;;5013597;28;20071;-84
2021/06/21 02:20:14;;;;;;;29.48;26.40;;;17.50;99.90;;;;;;4999360;28;20414;-83
2021/06/21 02:22:41;;;;;;;30.85;27.55;;;17.50;99.90;;;;;;4982737;28;20069;-84
2021/06/21 02:25:16;;;;;;;34.03;29.63;;;17.50;99.90;;;;;;4992297;28;20489;-85
2021/06/21 02:27:44;;;;;;;32.22;28.27;;;17.50;99.90;;;;;;4991818;28;20069;-85
2021/06/21 02:30:14;;;;;;;34.95;29.25;;;17.60;99.90;;;;;;4991730;28;20073;-87
2021/06/21 02:32:46;;;;;;;27.65;24.23;;;17.60;99.90;;;;;;5009056;28;20061;-85
2021/06/21 02:35:15;;;;;;;29.27;26.13;;;17.50;99.90;;;;;;4991713;28;20510;-83
2021/06/21 02:37:43;;;;;;;30.35;26.98;;;17.50;99.90;;;;;;5010429;28;20482;-86
2021/06/21 02:40:13;;;;;;;31.83;26.15;;;17.60;99.90;;;;;;5009575;28;20050;-83
2021/06/21 02:42:42;;;;;;;34.13;27.80;;;17.50;99.90;;;;;;5008901;28;20053;-85
2021/06/21 02:45:09;;;;;;;27.45;24.15;;;17.50;99.90;;;;;;5017975;28;20046;-83
2021/06/21 02:47:37;;;;;;;31.65;25.63;;;17.50;99.90;;;;;;5030148;28;20080;-83
2021/06/21 02:50:05;;;;;;;28.00;23.92;;;17.50;99.90;;;;;;5017111;28;20069;-85
2021/06/21 02:53:01;;;;;;;32.97;25.48;;;17.60;99.90;;;;;;4996714;28;20053;-85
2021/06/21 02:55:31;;;;;;;28.88;22.73;;;17.60;99.90;;;;;;4976494;28;20723;-85
2021/06/21 02:58:02;;;;;;;27.65;22.23;;;17.50;99.90;;;;;;4974701;28;20046;-84
2021/06/21 03:00:30;;;;;;;24.50;20.58;;;17.50;99.90;;;;;;4960071;28;20077;-82
2021/06/21 03:02:58;;;;;;;24.25;20.98;;;17.50;99.90;;;;;;4993401;28;20173;-82
2021/06/21 03:05:27;;;;;;;24.88;19.98;;;17.50;99.90;;;;;;4993946;28;20041;-82
2021/06/21 03:07:55;;;;;;;23.63;19.65;;;17.50;99.90;;;;;;4994042;28;20148;-83
2021/06/21 03:10:24;;;;;;;24.83;20.50;;;17.40;99.90;;;;;;4977537;28;20166;-82
2021/06/21 03:12:52;;;;;;;20.40;16.48;;;17.50;99.90;;;;;;4993481;28;20061;-84
2021/06/21 03:15:24;;;;;;;20.98;18.33;;;17.40;99.90;;;;;;4979977;28;20103;-83
2021/06/21 03:18:22;;;;;;;22.65;19.05;;;17.40;99.90;;;;;;4997489;28;20058;-85
2021/06/21 03:21:08;;;;;;;20.65;18.45;;;17.40;99.90;;;;;;4987921;28;20045;-85
2021/06/21 03:23:35;;;;;;;20.00;17.67;;;17.40;99.90;;;;;;4949896;28;20039;-85
2021/06/21 03:26:05;;;;;;;21.05;18.55;;;17.50;99.90;;;;;;4953578;28;20073;-85
2021/06/21 03:28:32;;;;;;;19.30;16.95;;;17.50;99.90;;;;;;4956032;28;20055;-83
2021/06/21 03:31:04;;;;;;;21.25;17.40;;;17.50;99.90;;;;;;4971369;28;20051;-84
2021/06/21 03:33:32;;;;;;;21.48;18.92;;;17.60;99.90;;;;;;4957281;28;20118;-83
2021/06/21 03:35:59;;;;;;;26.45;20.88;;;17.60;99.90;;;;;;4958421;28;20074;-83
2021/06/21 03:38:29;;;;;;;23.23;19.58;;;17.50;99.90;;;;;;4961260;28;20054;-84
2021/06/21 03:40:59;;;;;;;26.27;21.85;;;17.50;99.90;;;;;;4995896;28;20519;-82
2021/06/21 03:43:27;;;;;;;31.02;24.38;;;17.60;99.90;;;;;;5022102;28;20049;-83
2021/06/21 03:45:57;;;;;;;26.38;22.65;;;17.60;99.90;;;;;;4996693;28;20042;-84
2021/06/21 03:48:24;;;;;;;28.73;22.90;;;17.60;99.90;;;;;;5018443;28;20045;-81
2021/06/21 03:50:52;;;;;;;33.65;23.83;;;17.70;99.90;;;;;;5012226;28;20133;-83
2021/06/21 03:53:20;;;;;;;31.42;24.00;;;17.70;99.90;;;;;;4975811;28;20053;-83
2021/06/21 03:55:48;;;;;;;24.55;20.50;;;17.70;99.90;;;;;;4986658;28;20248;-83
2021/06/21 03:58:15;;;;;;;25.00;19.75;;;17.80;99.90;;;;;;4985263;28;20047;-82
2021/06/21 04:00:43;;;;;;;30.40;22.77;;;17.80;99.90;;;;;;4997898;28;20411;-83
2021/06/21 04:03:10;;;;;;;27.08;21.75;;;17.80;99.90;;;;;;4997115;28;20093;-82
2021/06/21 04:05:39;;;;;;;29.95;22.83;;;17.90;99.90;;;;;;4998878;28;20042;-81
2021/06/21 04:08:12;;;;;;;29.27;22.45;;;17.80;99.90;;;;;;4983364;28;20041;-80
2021/06/21 04:10:40;;;;;;;28.65;21.55;;;17.90;99.90;;;;;;4994907;28;20114;-82
2021/06/21 04:13:08;;;;;;;29.42;23.45;;;17.90;99.90;;;;;;4995273;28;20092;-82
2021/06/21 04:15:35;;;;;;;30.20;24.23;;;17.90;99.90;;;;;;5003272;28;20572;-84
2021/06/21 04:18:08;;;;;;;32.47;23.70;;;17.90;99.90;;;;;;4999888;28;20095;-82
2021/06/21 04:20:36;;;;;;;31.10;24.45;;;17.90;99.90;;;;;;5000039;28;20117;-82
2021/06/21 04:23:04;;;;;;;28.58;22.38;;;17.90;99.90;;;;;;4989816;28;20137;-83
2021/06/21 04:25:31;;;;;;;32.85;23.40;;;17.90;99.90;;;;;;4982581;28;20060;-83
2021/06/21 04:28:01;;;;;;;28.60;23.08;;;17.90;99.90;;;;;;4968127;28;20054;-82
2021/06/21 04:30:29;;;;;;;30.83;23.10;;;17.90;99.90;;;;;;4985005;28;20061;-81
2021/06/21 04:32:56;;;;;;;29.65;23.58;;;17.90;99.90;;;;;;5005398;28;20054;-82
2021/06/21 04:35:28;;;;;;;27.30;22.85;;;18.00;99.90;;;;;;4986322;28;20540;-82
2021/06/21 04:37:56;;;;;;;27.00;20.95;;;18.00;99.90;;;;;;4984160;28;20076;-82
2021/06/21 04:40:26;;;;;;;24.35;20.33;;;18.00;99.90;;;;;;4984092;28;20061;-84
2021/06/21 04:42:53;;;;;;;23.30;16.85;;;18.10;99.90;;;;;;4996690;28;20051;-81
2021/06/21 04:45:21;;;;;;;20.88;16.17;;;18.10;99.90;;;;;;5025866;28;20057;-82
2021/06/21 04:47:50;;;;;;;21.08;17.27;;;18.10;99.90;;;;;;5003258;28;20117;-85
2021/06/21 04:50:18;;;;;;;19.92;16.73;;;18.10;99.90;;;;;;4977043;28;20058;-82
2021/06/21 04:52:50;;;;;;;26.63;18.45;;;18.10;99.90;;;;;;4986194;28;20064;-82
2021/06/21 04:55:23;;;;;;;21.02;17.17;;;18.10;99.90;;;;;;4997585;28;20058;-82
2021/06/21 04:57:51;;;;;;;24.75;19.15;;;18.10;99.90;;;;;;5003250;28;20140;-84
2021/06/21 05:00:24;;;;;;;25.75;19.83;;;18.20;99.90;;;;;;5020607;28;20049;-83
2021/06/21 05:02:55;;;;;;;24.33;19.95;;;18.20;99.90;;;;;;5002774;28;20048;-81
2021/06/21 05:05:22;;;;;;;23.17;18.70;;;18.10;99.90;;;;;;4983174;28;20053;-82
2021/06/21 05:07:55;;;;;;;25.20;19.90;;;18.10;99.90;;;;;;5002746;28;20080;-82
2021/06/21 05:10:26;;;;;;;22.38;16.40;;;18.10;99.90;;;;;;4997441;28;20091;-82
2021/06/21 05:12:56;;;;;;;20.70;16.65;;;18.10;99.90;;;;;;4997486;28;20054;-85
2021/06/21 05:15:23;;;;;;;25.63;17.48;;;18.10;99.90;;;;;;4997572;28;20575;-84
2021/06/21 05:17:51;;;;;;;18.52;12.55;;;18.10;99.90;;;;;;4998234;28;20116;-83
2021/06/21 05:20:18;;;;;;;17.50;13.57;;;18.10;99.90;;;;;;4998450;28;20417;-83
2021/06/21 05:22:45;;;;;;;17.60;12.40;;;18.00;99.90;;;;;;4998795;28;20069;-82
2021/06/21 05:25:13;;;;;;;15.68;12.88;;;18.00;99.90;;;;;;4997147;28;20042;-81
2021/06/21 05:27:39;;;;;;;8.43;7.18;;;18.00;99.90;;;;;;4997354;28;20054;-80
2021/06/21 05:30:07;;;;;;;6.97;6.15;;;18.10;99.90;;;;;;4998365;28;20046;-83
2021/06/21 05:32:44;;;;;;;6.65;5.25;;;18.10;99.90;;;;;;4997402;28;20058;-82
2021/06/21 05:35:12;;;;;;;6.72;5.18;;;18.00;99.90;;;;;;4980531;28;20525;-83
2021/06/21 05:37:43;;;;;;;5.97;3.78;;;18.10;99.90;;;;;;4999474;28;20069;-82
2021/06/21 05:40:10;;;;;;;4.85;4.35;;;18.10;99.90;;;;;;4993132;28;20054;-83
2021/06/21 05:42:37;;;;;;;4.85;4.30;;;18.10;99.90;;;;;;4993420;28;20256;-82
2021/06/21 05:45:05;;;;;;;4.82;4.30;;;18.30;99.90;;;;;;5024395;28;20106;-82
2021/06/21 05:47:32;;;;;;;5.15;4.65;;;18.30;99.90;;;;;;5011418;28;20053;-82
2021/06/21 05:49:58;;;;;;;6.55;5.95;;;18.30;99.90;;;;;;4996472;28;20053;-83
2021/06/21 05:52:25;;;;;;;6.82;5.32;;;18.50;99.90;;;;;;4978345;28;20081;-80
2021/06/21 05:54:59;;;;;;;9.38;6.65;;;18.50;99.90;;;;;;4975869;28;20681;-82
2021/06/21 05:57:29;;;;;;;8.80;4.88;;;18.60;99.90;;;;;;4959531;28;20532;-81
2021/06/21 05:59:57;;;;;;;6.38;5.35;;;18.60;99.90;;;;;;4975779;28;20226;-81
2021/06/21 06:02:25;;;;;;;5.82;4.45;;;18.70;99.90;;;;;;5010229;28;20050;-80
2021/06/21 06:04:53;;;;;;;7.95;4.68;;;18.80;99.90;;;;;;4998492;28;20092;-82
2021/06/21 06:07:24;;;;;;;8.13;5.82;;;18.80;99.90;;;;;;5000714;28;20053;-83
2021/06/21 06:09:51;;;;;;;9.85;5.75;;;18.80;99.90;;;;;;4985581;28;20042;-81
2021/06/21 06:12:18;;;;;;;10.00;5.93;;;18.80;99.90;;;;;;5000237;28;20056;-82
2021/06/21 06:14:45;;;;;;;10.70;5.90;;;18.80;99.90;;;;;;5004705;28;20041;-80
2021/06/21 06:17:12;;;;;;;8.43;5.97;;;19.00;99.90;;;;;;5021202;28;20071;-81
2021/06/21 06:19:39;;;;;;;11.02;5.85;;;19.00;99.90;;;;;;4996440;28;20050;-82
2021/06/21 06:22:06;;;;;;;8.15;5.53;;;19.00;99.90;;;;;;4999257;28;20066;-82
2021/06/21 06:24:37;;;;;;;10.13;4.78;;;19.10;99.90;;;;;;4994149;28;20441;-81
2021/06/21 06:27:04;;;;;;;15.02;5.15;;;19.00;99.90;;;;;;4989407;28;20057;-82
2021/06/21 06:29:33;;;;;;;8.98;6.15;;;19.00;99.90;;;;;;4989163;28;20058;-82
2021/06/21 06:32:01;;;;;;;9.90;4.53;;;19.10;99.90;;;;;;4988105;28;20047;-82
2021/06/21 06:34:28;;;;;;;9.25;4.88;;;19.10;99.90;;;;;;5005085;28;20110;-84
2021/06/21 06:36:55;;;;;;;14.35;5.53;;;19.10;99.90;;;;;;4994581;28;20050;-82
2021/06/21 06:39:31;;;;;;;11.07;5.57;;;19.20;99.90;;;;;;5007350;28;20058;-83
2021/06/21 06:41:58;;;;;;;7.60;5.10;;;19.20;99.90;;;;;;5004184;28;20055;-82
2021/06/21 06:44:25;;;;;;;9.00;5.15;;;19.20;99.90;;;;;;4972843;28;20051;-84
2021/06/21 06:46:53;;;;;;;9.95;6.00;;;19.20;99.90;;;;;;4991808;28;20072;-84
2021/06/21 06:49:25;;;;;;;10.30;5.50;;;19.40;99.90;;;;;;4996911;28;20317;-84
2021/06/21 06:51:54;;;;;;;8.45;5.00;;;19.40;99.90;;;;;;4991854;28;20109;-84
2021/06/21 06:57:14;;;;;;;12.65;4.97;;;19.30;99.90;;;;;;4986103;28;20053;-83
2021/06/21 06:59:42;;;;;;;10.77;5.70;;;19.30;99.90;;;;;;4982248;28;20555;-82
2021/06/21 07:02:27;;;;;;;8.35;4.45;;;19.30;99.90;;;;;;5018232;28;20421;-83
2021/06/21 07:05:11;;;;;;;10.93;5.15;;;19.20;99.90;;;;;;4997882;28;20092;-84
2021/06/21 07:07:44;;;;;;;14.30;4.88;;;19.20;99.90;;;;;;4981562;28;20038;-84
2021/06/21 07:10:14;;;;;;;14.18;4.97;;;19.60;99.90;;;;;;4995341;28;20050;-82
2021/06/21 07:12:43;;;;;;;9.98;4.50;;;19.90;99.90;;;;;;4996642;28;20694;-83
2021/06/21 07:15:13;;;;;;;8.70;3.97;;;20.30;99.90;;;;;;4985708;28;20041;-86
2021/06/21 07:17:45;;;;;;;9.30;4.07;;;20.60;99.90;;;;;;5001242;28;20042;-85
2021/06/21 07:20:15;;;;;;;11.18;5.65;;;20.80;99.90;;;;;;4992914;28;20142;-84
2021/06/21 07:22:42;;;;;;;8.65;4.95;;;21.00;99.90;;;;;;5002251;28;20042;-83
2021/06/21 07:25:10;;;;;;;8.43;4.80;;;21.10;99.90;;;;;;4994806;28;20114;-81
2021/06/21 07:27:37;;;;;;;10.07;5.22;;;20.90;99.90;;;;;;4998295;28;20153;-85
2021/06/21 07:30:05;;;;;;;9.18;5.03;;;20.90;99.90;;;;;;5014841;28;20048;-81
2021/06/21 07:32:32;;;;;;;6.22;4.97;;;20.90;99.90;;;;;;5016169;28;20089;-81
2021/06/21 07:34:59;;;;;;;10.63;5.03;;;20.80;99.90;;;;;;5015020;28;20077;-82
2021/06/21 07:37:26;;;;;;;13.35;4.53;;;20.70;99.90;;;;;;5014745;28;20037;-81
2021/06/21 07:39:53;;;;;;;11.23;4.57;;;20.70;99.90;;;;;;5014199;28;20042;-81
2021/06/21 07:42:20;;;;;;;10.65;4.30;;;20.80;99.90;;;;;;5031697;28;20068;-80
2021/06/21 07:44:47;;;;;;;9.80;4.40;;;20.90;99.90;;;;;;5011118;28;20069;-82
2021/06/21 07:47:14;;;;;;;10.68;4.18;;;21.00;99.90;;;;;;5007915;28;20103;-80
2021/06/21 07:49:41;;;;;;;13.63;4.25;;;20.90;99.90;;;;;;5015982;28;20073;-80
2021/06/21 07:52:08;;;;;;;9.65;4.68;;;20.90;99.90;;;;;;4990781;28;20061;-81
2021/06/21 07:54:35;;;;;;;7.75;4.57;;;20.80;99.90;;;;;;4996780;28;20088;-80
2021/06/21 07:57:02;;;;;;;7.45;4.57;;;20.70;99.90;;;;;;4963966;28;20060;-81
2021/06/21 07:59:29;;;;;;;10.85;4.95;;;20.80;99.90;;;;;;4978064;28;20038;-80
2021/06/21 08:01:56;;;;;;;9.85;4.68;;;20.80;99.90;;;;;;4989583;28;20579;-81
2021/06/21 08:04:23;;;;;;;11.73;4.47;;;20.90;99.90;;;;;;4996164;28;20179;-82
2021/06/21 08:06:50;;;;;;;9.07;4.30;;;20.90;99.90;;;;;;4998895;28;20056;-80
2021/06/21 08:09:17;;;;;;;12.77;4.20;;;20.70;99.90;;;;;;5000767;28;20052;-81
2021/06/21 08:11:43;;;;;;;10.68;4.43;;;20.90;99.90;;;;;;5000009;28;20073;-78
2021/06/21 08:14:10;;;;;;;11.48;4.78;;;20.90;99.90;;;;;;4982863;28;20354;-80
2021/06/21 08:16:37;;;;;;;11.65;5.05;;;21.00;99.90;;;;;;5011139;28;20046;-81
2021/06/21 08:19:04;;;;;;;6.45;5.15;;;21.30;99.90;;;;;;5000256;28;20065;-81
2021/06/21 08:21:31;;;;;;;9.10;5.30;;;21.50;99.90;;;;;;4991816;28;20093;-81
2021/06/21 08:23:59;;;;;;;9.52;4.97;;;21.60;99.90;;;;;;4976864;28;20073;-80
2021/06/21 08:26:26;;;;;;;11.07;5.88;;;21.80;99.90;;;;;;4961578;28;20130;-80
2021/06/21 08:28:52;;;;;;;10.02;5.25;;;21.80;99.90;;;;;;4994233;28;20069;-80
2021/06/21 08:31:19;;;;;;;5.95;5.25;;;21.90;99.90;;;;;;5011727;28;20050;-82
2021/06/21 08:33:46;;;;;;;10.15;5.78;;;22.10;99.90;;;;;;5005637;28;20046;-81
2021/06/21 08:36:13;;;;;;;7.53;6.15;;;22.20;99.90;;;;;;5022735;28;20051;-80
2021/06/21 08:38:40;;;;;;;9.23;5.88;;;22.50;99.90;;;;;;5026783;28;20104;-81
2021/06/21 08:41:07;;;;;;;7.55;6.15;;;22.60;99.90;;;;;;4975802;28;20161;-81
2021/06/21 08:43:34;;;;;;;8.55;6.30;;;22.40;99.90;;;;;;5001766;28;20047;-79
2021/06/21 08:46:02;;;;;;;9.57;6.55;;;22.30;99.90;;;;;;5011039;28;20045;-78
2021/06/21 08:48:31;;;;;;;11.05;6.88;;;22.10;99.90;;;;;;5022903;28;20059;-79
2021/06/21 08:51:01;;;;;;;8.23;6.32;;;22.10;99.90;;;;;;5009314;28;20239;-79
2021/06/21 08:53:28;;;;;;;7.57;6.25;;;22.50;99.90;;;;;;4987448;28;20057;-80
2021/06/21 08:55:55;;;;;;;7.38;6.78;;;22.90;99.90;;;;;;4998800;28;20219;-80
2021/06/21 08:58:22;;;;;;;10.35;6.70;;;23.40;99.90;;;;;;4983789;28;20122;-79
2021/06/21 09:00:49;;;;;;;7.47;6.40;;;23.60;99.90;;;;;;4991164;28;20688;-79
2021/06/21 09:03:17;;;;;;;8.23;7.43;;;23.40;99.90;;;;;;5032855;28;20039;-80
2021/06/21 09:05:44;;;;;;;8.80;7.35;;;23.20;99.90;;;;;;5032771;28;20068;-78
2021/06/21 09:08:11;;;;;;;8.02;7.38;;;23.00;99.90;;;;;;5036808;28;20057;-79
2021/06/21 09:10:39;;;;;;;8.20;7.30;;;22.90;99.90;;;;;;5036088;28;20050;-78
2021/06/21 09:13:14;;;;;;;7.47;6.80;;;22.80;99.90;;;;;;5020428;28;20133;-79
2021/06/21 09:15:43;;;;;;;9.32;8.25;;;22.90;99.90;;;;;;5030132;28;20049;-80
2021/06/21 09:18:26;;;;;;;9.38;7.25;;;23.00;99.90;;;;;;5035651;28;20052;-80
2021/06/21 09:21:27;;;;;;;8.68;6.97;;;23.20;99.90;;;;;;5034151;28;20025;-78
2021/06/21 09:24:29;;;;;;;10.43;7.90;;;23.00;99.90;;;;;;5006289;28;20061;-79
2021/06/21 09:27:01;;;;;;;9.15;8.25;;;23.00;99.90;;;;;;5016614;28;20551;-79
2021/06/21 09:29:33;;;;;;;7.47;6.80;;;22.90;99.90;;;;;;5005625;28;20037;-80
2021/06/21 09:32:38;;;;;;;8.93;6.28;;;22.40;99.90;;;;;;5032764;28;20045;-80
2021/06/21 09:35:05;;;;;;;8.02;6.25;;;21.80;99.90;;;;;;4996182;28;20092;-79
2021/06/21 09:37:43;;;;;;;8.43;6.18;;;21.60;99.90;;;;;;4979992;28;20476;-80
2021/06/21 09:40:25;;;;;;;6.53;5.47;;;21.30;99.90;;;;;;4995373;28;20537;-79
2021/06/21 09:42:52;;;;;;;10.25;5.40;;;21.00;99.90;;;;;;4990552;28;20078;-80
2021/06/21 09:45:19;;;;;;;7.05;4.70;;;20.80;99.90;;;;;;4976938;28;20133;-77
2021/06/21 09:47:46;;;;;;;7.10;5.07;;;20.60;99.90;;;;;;5012920;28;20045;-79
2021/06/21 09:50:18;;;;;;;5.90;4.38;;;20.40;99.90;;;;;;4995443;28;20124;-80
2021/06/21 09:52:56;;;;;;;5.32;4.28;;;20.40;99.90;;;;;;4994319;28;20069;-79
2021/06/21 09:55:45;;;;;;;8.70;4.93;;;20.30;99.90;;;;;;4990894;28;20058;-78
2021/06/21 09:58:13;;;;;;;6.90;4.57;;;20.20;99.90;;;;;;4974382;28;20061;-79
2021/06/21 10:01:09;;;;;;;7.38;4.50;;;20.20;99.90;;;;;;4974934;28;20054;-77
2021/06/21 10:03:40;;;;;;;7.93;4.88;;;20.10;99.90;;;;;;4989094;28;20046;-80
2021/06/21 10:06:09;;;;;;;6.90;4.85;;;20.00;99.90;;;;;;4993908;28;20133;-80
2021/06/21 10:08:47;;;;;;;7.97;4.72;;;20.00;99.90;;;;;;4974177;28;20060;-80
2021/06/21 10:11:37;;;;;;;9.63;5.18;;;20.10;99.90;;;;;;4974576;28;20057;-79
2021/06/21 10:14:07;;;;;;;8.07;4.60;;;20.10;99.90;;;;;;4961496;28;20051;-81
2021/06/21 10:16:34;;;;;;;7.43;4.75;;;20.10;99.90;;;;;;4992716;28;20038;-80
2021/06/21 10:19:03;;;;;;;7.07;5.03;;;20.10;99.90;;;;;;4991043;28;20140;-79
2021/06/21 10:21:31;;;;;;;6.95;4.80;;;20.20;99.90;;;;;;4975558;28;20054;-80
2021/06/21 10:23:58;;;;;;;7.38;4.60;;;20.20;99.90;;;;;;4990630;28;20144;-79
2021/06/21 10:26:26;;;;;;;6.60;5.28;;;20.20;99.90;;;;;;4991141;28;20073;-79
2021/06/21 10:28:53;;;;;;;10.13;5.20;;;20.20;99.90;;;;;;4988961;28;20058;-79
2021/06/21 10:31:22;;;;;;;9.60;5.00;;;20.40;99.90;;;;;;4991820;28;20065;-78
2021/06/21 10:33:49;;;;;;;8.65;5.03;;;20.50;99.90;;;;;;4995558;28;20039;-81
2021/06/21 10:36:16;;;;;;;7.13;5.60;;;20.70;99.90;;;;;;5014700;28;20054;-79
2021/06/21 10:38:43;;;;;;;9.43;6.70;;;20.80;99.90;;;;;;5007050;28;20065;-79
2021/06/21 10:41:11;;;;;;;7.38;6.72;;;20.90;99.90;;;;;;4973371;28;20050;-79
2021/06/21 10:43:44;;;;;;;7.90;7.20;;;21.10;99.90;;;;;;4974506;28;20100;-80
2021/06/21 10:46:24;;;;;;;10.90;7.35;;;21.30;99.90;;;;;;4985540;28;20038;-79
2021/06/21 10:48:57;;;;;;;8.15;7.45;;;21.60;99.90;;;;;;4996291;28;20052;-79
2021/06/21 10:51:38;;;;;;;8.65;7.82;;;22.00;99.90;;;;;;5006649;28;20061;-79
2021/06/21 10:54:09;;;;;;;8.85;8.23;;;22.50;99.90;;;;;;5019528;28;20056;-80
2021/06/21 10:56:43;;;;;;;10.52;9.60;;;22.90;99.90;;;;;;5010620;28;20033;-81
2021/06/21 10:59:19;;;;;;;12.30;11.17;;;23.00;99.90;;;;;;5023851;28;20050;-79
2021/06/21 11:01:47;;;;;;;10.38;9.68;;;23.00;99.90;;;;;;5001353;28;20750;-79
2021/06/21 11:04:34;;;;;;;11.10;10.30;;;23.10;99.90;;;;;;5002600;28;20111;-78
2021/06/21 11:07:13;;;;;;;12.73;11.65;;;23.50;99.90;;;;;;4986708;28;20062;-78
2021/06/21 11:09:41;;;;;;;11.05;10.18;;;23.60;99.90;;;;;;4969033;28;20065;-79
2021/06/21 11:12:37;;;;;;;9.88;9.40;;;23.80;99.90;;;;;;4996584;28;20533;-80
2021/06/21 11:15:10;;;;;;;12.63;11.63;;;24.00;99.90;;;;;;4984968;28;20784;-80
2021/06/21 11:17:50;;;;;;;11.57;10.63;;;24.20;99.90;;;;;;5019151;28;20123;-79
2021/06/21 11:20:35;;;;;;;11.90;10.82;;;24.10;99.90;;;;;;5010273;28;20060;-82
2021/06/21 11:23:05;;;;;;;12.05;10.88;;;24.60;99.90;;;;;;5010998;28;20080;-79
2021/06/21 11:25:39;;;;;;;12.40;11.65;;;24.50;99.90;;;;;;5013579;28;20037;-79
2021/06/21 11:28:26;;;;;;;10.82;10.27;;;24.20;99.90;;;;;;5013538;28;20053;-79
2021/06/21 11:31:22;;;;;;;11.65;10.38;;;24.40;99.90;;;;;;5010405;28;20061;-80
2021/06/21 11:34:01;;;;;;;12.13;11.23;;;24.30;99.90;;;;;;4995392;28;20525;-79
2021/06/21 11:36:43;;;;;;;10.98;10.38;;;24.40;99.90;;;;;;4992465;28;20080;-80
2021/06/21 11:39:24;;;;;;;10.80;10.07;;;24.20;99.90;;;;;;5009614;28;20128;-79
2021/06/21 11:42:06;;;;;;;11.20;10.45;;;24.20;99.90;;;;;;4976073;28;20742;-79
2021/06/21 11:44:39;;;;;;;11.60;10.75;;;24.10;99.90;;;;;;4979929;28;20402;-78
2021/06/21 11:47:29;;;;;;;10.52;9.75;;;23.90;99.90;;;;;;5019481;28;20041;-81
2021/06/21 11:50:13;;;;;;;10.98;10.23;;;24.00;99.90;;;;;;4995830;28;20072;-79
2021/06/21 11:52:40;;;;;;;11.98;11.27;;;24.00;99.90;;;;;;5010963;28;20053;-78
2021/06/21 11:55:16;;;;;;;11.32;10.63;;;24.20;99.90;;;;;;4982386;28;20053;-78
2021/06/21 11:57:57;;;;;;;11.55;10.57;;;24.50;99.90;;;;;;4990309;28;20677;-80
2021/06/21 12:00:36;;;;;;;11.85;11.05;;;24.70;99.90;;;;;;4996540;28;20148;-78
2021/06/21 12:03:08;;;;;;;11.15;10.52;;;25.00;99.90;;;;;;4992273;28;20077;-80
2021/06/21 12:05:36;;;;;;;11.55;10.95;;;25.00;99.90;;;;;;4990654;28;20048;-79
2021/06/21 12:08:14;;;;;;;11.73;10.63;;;25.00;99.90;;;;;;4998381;28;20073;-80
2021/06/21 12:10:43;;;;;;;11.77;10.98;;;25.20;99.90;;;;;;4981785;28;20052;-79
2021/06/21 12:13:10;;;;;;;12.75;11.98;;;25.00;99.90;;;;;;4996682;28;20501;-79
2021/06/21 12:15:40;;;;;;;11.60;10.93;;;24.90;99.90;;;;;;5014514;28;20077;-80
2021/06/21 12:18:08;;;;;;;12.80;11.73;;;25.00;99.90;;;;;;5002467;28;20556;-79
2021/06/21 12:20:36;;;;;;;11.80;11.10;;;25.20;99.90;;;;;;4993146;28;20046;-80
2021/06/21 12:23:07;;;;;;;12.07;11.32;;;25.40;99.90;;;;;;4978491;28;20060;-81
2021/06/21 12:25:43;;;;;;;12.40;11.38;;;25.20;99.90;;;;;;5000651;28;20052;-80
2021/06/21 12:28:17;;;;;;;12.00;10.90;;;25.00;99.90;;;;;;5015673;28;20056;-81
2021/06/21 12:30:47;;;;;;;10.80;10.23;;;25.10;99.90;;;;;;4998781;28;20053;-79
2021/06/21 12:33:30;;;;;;;11.32;10.63;;;25.30;99.90;;;;;;5003316;28;20148;-79
2021/06/21 12:36:13;;;;;;;11.32;10.63;;;25.10;99.90;;;;;;5009930;28;20764;-79
2021/06/21 12:38:53;;;;;;;11.10;10.40;;;25.10;99.90;;;;;;5010395;28;20046;-79
2021/06/21 12:41:24;;;;;;;10.90;10.32;;;25.20;99.90;;;;;;5008708;28;20053;-81
2021/06/21 12:44:19;;;;;;;16.10;10.88;;;25.30;99.90;;;;;;4994921;28;20069;-79
2021/06/21 12:46:47;;;;;;;10.70;9.93;;;25.30;99.90;;;;;;5019937;28;20146;-80
2021/06/21 12:49:18;;;;;;;11.48;10.65;;;24.80;99.90;;;;;;5014863;28;20038;-80
2021/06/21 12:51:46;;;;;;;10.30;9.65;;;24.50;99.90;;;;;;5021309;28;20053;-79
2021/06/21 12:54:23;;;;;;;10.32;9.73;;;24.30;99.90;;;;;;5016372;28;20041;-80
2021/06/21 12:56:53;;;;;;;10.93;10.13;;;24.30;99.90;;;;;;5014343;28;20061;-80
2021/06/21 12:59:28;;;;;;;9.38;8.85;;;24.30;99.90;;;;;;4994360;28;20136;-77